createdAt,value
2023-02-01T00:21:05.498Z,26
2023-02-01T00:49:32.442Z,24
2023-02-01T01:18:08.759Z,22
2023-02-01T01:46:39.245Z,21
2023-02-01T02:15:09.350Z,22
2023-02-01T02:43:45.513Z,21
2023-02-01T03:12:17.807Z,21
2023-02-01T03:40:50.724Z,20
2023-02-01T04:09:16.156Z,15
2023-02-01T04:37:48.402Z,14
2023-02-01T05:06:18.418Z,12
2023-02-01T05:34:40.039Z,12
2023-02-01T06:03:04.676Z,14
2023-02-01T06:31:22.919Z,12
2023-02-01T06:59:51.765Z,12
2023-02-01T07:28:26.218Z,9
2023-02-01T07:56:58.562Z,12
2023-02-01T08:25:28.902Z,9
2023-02-01T08:54:02.335Z,10
2023-02-01T09:22:27.863Z,10
2023-02-01T09:51:07.666Z,10
2023-02-01T10:19:35.568Z,10
2023-02-01T10:48:06.966Z,9
2023-02-01T11:16:39.559Z,13
2023-02-01T11:45:00.651Z,12
2023-02-01T12:13:20.148Z,14
2023-02-01T12:41:46.857Z,14
2023-02-01T13:10:09.333Z,12
2023-02-01T13:38:45.354Z,12
2023-02-01T14:06:58.227Z,13
2023-02-01T14:35:12.641Z,9
2023-02-01T15:03:41.366Z,13
2023-02-01T15:32:02.406Z,11
2023-02-01T16:00:29.156Z,11
2023-02-01T16:28:52.194Z,11
2023-02-01T16:57:05.575Z,14
2023-02-01T17:25:46.308Z,24
2023-02-01T17:54:09.186Z,14
2023-02-01T18:22:14.069Z,15
2023-02-01T18:50:46.216Z,13
2023-02-01T19:19:09.089Z,12
2023-02-01T19:47:51.076Z,10
2023-02-01T20:16:12.417Z,11
2023-02-01T20:44:40.920Z,11
2023-02-01T21:13:16.884Z,11
2023-02-01T21:41:31.089Z,11
2023-02-01T22:09:50.479Z,11
2023-02-01T22:38:12.941Z,9
2023-02-01T23:12:29.219Z,9
2023-02-01T23:40:06.801Z,9
